aviador You're here:

CYYT Decoded Metar

ST. JOHN'S in NL, CANADA
Report Time2017-11-21 04:00:00
UTC Time2017-11-21 04:24:51
Flight Rules vfr VFR
Wind260° at 10 kt
W.Decomp.*RWY 29: 9.9 kt HW 1.6 kt LCW
RWY 34: 5.2 kt HW 8.6 kt LCW
RWY 20: 1.6 kt HW 9.9 kt RCW
W.Rank260° ranks 1
Current wind is below 260° avg. (15.0)
Visibility9999 m
Phenomena:N/A
Clouds:Broken 200 Hf
Expected CloudBase > 400 ft AGL from Temp-Dew spread
Ceiling20,000 ft
Temp02°C (ISA -12)
Dew Point01°C (93% RH)
AAT-3.4°C
QNH1000 hPa
Density Alt-472 ft
Elevation459 ft
Report Wrong Elevation
Raw Report
CYYT 210400Z 26010KT 15SM BKN200 02/01 A2952 RMK CI6 SLP001=

Extra information for CYYT:More info

Metar Taf Metar & Taf Last 4 Metars F.Rules Stats Wind Profile Meteogram Temp Stats Airport Information Weather charts Add Link Nearby VenuesMetar ALERT Operation Metar Decoded Social comments